Terminal Aerodrome Forecast
Issued by NWS Wilmington, NC

Home | Current Version | Previous Version | Text Only | Print | Product List | Glossary On
Versions: 1 2 3 4 5 6 7 8 9 10 11 12 13 14 15 16 17 18 19 20 21 22 23 24
000
FTUS42 KILM 251123
TAFLBT
TAF
KLBT 251123Z 2512/2612 20005KT P6SM BKN250
     FM251500 21012KT P6SM SCT080 BKN250
     FM252200 27008KT P6SM VCSH BKN080 OVC150
     FM260300 35007KT 6SM -SHRA BR BKN015 OVC070
     FM260900 03011KT 6SM BR OVC015
      AMD NOT SKED=

USA.gov is the U.S. government's official web portal to all federal, state and local government web resources and services.